createdAt,value
2019-04-16T00:01:46.124Z,4.80
2019-04-16T00:04:32.526Z,4.80
2019-04-16T00:07:25.699Z,4.70
2019-04-16T00:10:01.292Z,4.70
2019-04-16T00:12:54.991Z,4.70
2019-04-16T00:15:24.391Z,4.70
2019-04-16T00:17:53.279Z,4.70
2019-04-16T00:20:22.486Z,4.70
2019-04-16T00:23:06.634Z,4.70
2019-04-16T00:25:35.191Z,4.60
2019-04-16T00:28:03.659Z,4.60
2019-04-16T00:30:35.468Z,4.60
2019-04-16T00:33:03.326Z,4.50
2019-04-16T00:35:31.654Z,4.50
2019-04-16T00:38:00.396Z,4.50
2019-04-16T00:40:28.872Z,4.50
2019-04-16T00:42:57.396Z,4.50
2019-04-16T00:45:25.853Z,4.50
2019-04-16T00:47:54.282Z,4.40
2019-04-16T00:50:22.587Z,4.30
2019-04-16T00:52:51.004Z,4.30
2019-04-16T00:55:19.436Z,4.20
2019-04-16T00:57:48.591Z,4.20
2019-04-16T01:00:17.776Z,4.20
2019-04-16T01:02:47.064Z,4.20
2019-04-16T01:05:15.663Z,4.20
2019-04-16T01:07:44.009Z,4.10
2019-04-16T01:10:12.431Z,4.10
2019-04-16T01:12:40.850Z,4.10
2019-04-16T01:15:09.367Z,4.00
2019-04-16T01:17:37.832Z,4.00
2019-04-16T01:20:06.472Z,3.90
2019-04-16T01:22:34.822Z,3.90
2019-04-16T01:25:03.573Z,4.00
2019-04-16T01:27:42.309Z,4.10
2019-04-16T01:30:13.133Z,4.10
2019-04-16T01:33:00.965Z,4.20
2019-04-16T01:35:51.724Z,4.20
2019-04-16T01:38:45.288Z,4.10
2019-04-16T01:41:15.526Z,4.00
2019-04-16T01:43:43.828Z,3.90
2019-04-16T01:46:12.211Z,3.90
2019-04-16T01:48:40.548Z,3.80
2019-04-16T01:51:08.871Z,3.80
2019-04-16T01:53:37.205Z,3.80
2019-04-16T01:56:05.538Z,3.90
2019-04-16T01:58:34.558Z,4.00
2019-04-16T02:01:03.459Z,4.00
2019-04-16T02:03:31.815Z,4.00
2019-04-16T02:06:00.196Z,3.90
2019-04-16T02:08:31.079Z,3.90
2019-04-16T02:10:59.577Z,3.90
2019-04-16T02:13:28.251Z,3.90
2019-04-16T02:15:56.934Z,3.80
2019-04-16T02:18:29.465Z,3.80
2019-04-16T02:20:55.779Z,3.80
2019-04-16T02:23:24.274Z,3.70
2019-04-16T02:25:52.886Z,3.70
2019-04-16T02:28:21.906Z,3.60
2019-04-16T02:30:50.607Z,3.60
2019-04-16T02:33:19.083Z,3.60
2019-04-16T02:35:47.537Z,3.60
2019-04-16T02:38:16.068Z,3.50
2019-04-16T02:40:51.398Z,3.40
2019-04-16T02:43:15.358Z,3.50
2019-04-16T02:45:43.821Z,3.40
2019-04-16T02:48:16.975Z,3.40
2019-04-16T02:50:52.899Z,3.40
2019-04-16T02:53:39.570Z,3.40
2019-04-16T02:56:26.710Z,3.30
2019-04-16T02:59:00.067Z,3.30
2019-04-16T03:01:49.460Z,3.30
2019-04-16T03:04:21.114Z,3.20
2019-04-16T03:06:49.708Z,3.10
2019-04-16T03:09:18.221Z,3.10
2019-04-16T03:11:48.953Z,3.10
2019-04-16T03:14:17.085Z,3.10
2019-04-16T03:17:01.817Z,3.00
2019-04-16T03:19:33.424Z,3.10
2019-04-16T03:22:02.896Z,3.20
2019-04-16T03:24:31.801Z,3.10
2019-04-16T03:27:00.409Z,3.10
2019-04-16T03:29:30.465Z,3.10
2019-04-16T03:31:59.638Z,3.10
2019-04-16T03:34:29.354Z,3.10
2019-04-16T03:36:58.562Z,3.20
2019-04-16T03:39:28.364Z,3.20
2019-04-16T03:41:56.934Z,3.10
2019-04-16T03:44:25.482Z,3.10
2019-04-16T03:46:54.090Z,3.00
2019-04-16T03:49:24.574Z,3.00
2019-04-16T03:51:52.800Z,3.00
2019-04-16T03:54:22.323Z,3.00
2019-04-16T03:56:51.638Z,3.10
2019-04-16T03:59:20.146Z,3.00
2019-04-16T04:01:48.712Z,3.10
2019-04-16T04:04:17.203Z,3.00
2019-04-16T04:06:45.674Z,3.00
2019-04-16T04:09:14.281Z,3.00
2019-04-16T04:11:42.821Z,2.90
2019-04-16T04:14:11.244Z,3.00
2019-04-16T04:16:39.876Z,3.00
2019-04-16T04:19:08.357Z,3.00
2019-04-16T04:21:36.814Z,3.00
2019-04-16T04:24:05.268Z,2.90
2019-04-16T04:26:33.966Z,2.80
2019-04-16T04:29:02.489Z,2.80
2019-04-16T04:31:32.304Z,2.80
2019-04-16T04:34:01.617Z,2.80
2019-04-16T04:36:31.226Z,2.70
2019-04-16T04:38:59.732Z,2.70
2019-04-16T04:41:28.219Z,2.70
2019-04-16T04:43:56.784Z,2.70
2019-04-16T04:46:25.302Z,2.70
2019-04-16T04:48:55.727Z,2.60
2019-04-16T04:51:24.396Z,2.70
2019-04-16T04:53:52.971Z,2.80
2019-04-16T04:56:21.602Z,2.90
2019-04-16T04:58:50.307Z,2.90
2019-04-16T05:01:19.018Z,3.10
2019-04-16T05:03:58.299Z,3.20
2019-04-16T05:06:29.891Z,3.20
2019-04-16T05:09:00.399Z,3.20
2019-04-16T05:11:28.956Z,3.30
2019-04-16T05:13:57.625Z,3.50
2019-04-16T05:16:26.162Z,3.70
2019-04-16T05:18:54.610Z,3.80
2019-04-16T05:21:23.009Z,4.00
2019-04-16T05:23:51.451Z,4.20
2019-04-16T05:26:19.840Z,4.20
2019-04-16T05:28:48.321Z,4.30
2019-04-16T05:31:16.804Z,4.40
2019-04-16T05:33:45.316Z,4.50
2019-04-16T05:36:15.212Z,4.60
2019-04-16T05:38:43.805Z,4.50
2019-04-16T05:41:13.484Z,4.60
2019-04-16T05:43:42.946Z,5.00
2019-04-16T05:46:11.544Z,5.40
2019-04-16T05:48:39.974Z,5.70
2019-04-16T05:51:08.448Z,5.90
2019-04-16T05:53:40.164Z,6.20
2019-04-16T05:56:16.314Z,6.50
2019-04-16T05:58:44.703Z,6.80
2019-04-16T06:01:38.670Z,7.00
2019-04-16T06:04:07.138Z,7.00
2019-04-16T06:06:35.523Z,7.20
2019-04-16T06:09:11.821Z,7.60
2019-04-16T06:11:38.391Z,7.80
2019-04-16T06:14:33.147Z,7.80
2019-04-16T06:17:25.199Z,8.20
2019-04-16T06:20:19.010Z,8.20
2019-04-16T06:23:07.759Z,8.40
2019-04-16T06:25:46.533Z,8.70
2019-04-16T06:28:49.331Z,8.90
2019-04-16T06:31:36.217Z,9.10
2019-04-16T06:34:36.934Z,9.30
2019-04-16T06:37:26.589Z,9.60
2019-04-16T06:40:10.551Z,9.70
2019-04-16T06:42:58.601Z,9.80
2019-04-16T06:45:36.586Z,10.10
2019-04-16T06:48:05.054Z,10.10
2019-04-16T06:50:55.729Z,10.30
2019-04-16T06:53:38.706Z,10.50
2019-04-16T06:56:25.364Z,10.80
2019-04-16T06:59:04.843Z,11.10
2019-04-16T07:02:10.599Z,11.30
2019-04-16T07:04:58.271Z,11.50
2019-04-16T07:07:40.419Z,12.00
2019-04-16T07:10:13.843Z,12.50
2019-04-16T07:12:42.317Z,12.90
2019-04-16T07:15:11.289Z,13.00
2019-04-16T07:17:40.728Z,13.10
2019-04-16T07:20:13.136Z,13.30
2019-04-16T07:22:39.782Z,13.50
2019-04-16T07:25:08.530Z,13.70
2019-04-16T07:27:59.314Z,13.90
2019-04-16T07:30:46.163Z,14.00
2019-04-16T07:33:37.088Z,13.90
2019-04-16T07:36:26.731Z,14.40
2019-04-16T07:39:13.126Z,14.50
2019-04-16T07:42:09.410Z,14.70
2019-04-16T07:44:39.302Z,14.90
2019-04-16T07:47:25.269Z,15.10
2019-04-16T07:50:12.868Z,15.30
2019-04-16T07:53:14.265Z,15.40
2019-04-16T07:55:47.909Z,15.60
2019-04-16T07:58:16.224Z,16.20
2019-04-16T08:00:45.303Z,16.50
2019-04-16T08:03:13.736Z,16.70
2019-04-16T08:05:42.076Z,16.90
2019-04-16T08:08:10.472Z,17.00
2019-04-16T08:10:38.790Z,17.20
2019-04-16T08:13:14.288Z,16.90
2019-04-16T08:15:43.120Z,17.00
2019-04-16T08:18:11.544Z,16.90
2019-04-16T08:20:39.926Z,17.20
2019-04-16T08:23:26.469Z,17.20
2019-04-16T08:26:02.622Z,17.50
2019-04-16T08:28:26.189Z,17.60
2019-04-16T08:30:54.614Z,17.80
2019-04-16T08:33:28.338Z,17.60
2019-04-16T08:35:53.207Z,17.60
2019-04-16T08:38:21.659Z,18.00
2019-04-16T08:40:50.040Z,18.20
2019-04-16T08:43:18.321Z,18.10
2019-04-16T08:45:47.607Z,18.20
2019-04-16T08:48:18.629Z,18.40
2019-04-16T08:50:49.286Z,18.00
2019-04-16T08:53:17.603Z,17.80
2019-04-16T08:55:45.961Z,18.40
2019-04-16T08:58:14.300Z,18.30
2019-04-16T09:00:46.644Z,18.90
2019-04-16T09:03:15.504Z,18.70
2019-04-16T09:05:45.249Z,18.00
2019-04-16T09:08:36.153Z,17.20
2019-04-16T09:11:04.881Z,17.40
2019-04-16T09:13:40.896Z,17.70
2019-04-16T09:16:10.361Z,17.90
2019-04-16T09:19:00.487Z,17.80
2019-04-16T09:21:29.089Z,17.50
2019-04-16T09:24:15.949Z,17.70
2019-04-16T09:26:55.757Z,18.00
2019-04-16T09:29:43.186Z,18.60
2019-04-16T09:32:33.851Z,18.50
2019-04-16T09:35:31.101Z,18.20
2019-04-16T09:38:21.682Z,18.10
2019-04-16T09:41:15.715Z,17.90
2019-04-16T09:43:47.348Z,18.10
2019-04-16T09:46:21.121Z,17.90
2019-04-16T09:48:46.212Z,17.90
2019-04-16T09:51:18.697Z,18.30
2019-04-16T09:53:44.886Z,18.50
2019-04-16T09:56:28.913Z,19.00
2019-04-16T09:59:05.867Z,19.30
2019-04-16T10:01:43.651Z,19.80
2019-04-16T10:04:14.657Z,19.50
2019-04-16T10:06:43.450Z,19.20
2019-04-16T10:09:12.724Z,19.50
2019-04-16T10:11:42.320Z,20.00
2019-04-16T10:14:10.687Z,20.10
2019-04-16T10:16:39.116Z,20.60
2019-04-16T10:19:08.519Z,20.80
2019-04-16T10:21:37.576Z,21.20
2019-04-16T10:24:25.605Z,20.80
2019-04-16T10:26:57.005Z,20.60
2019-04-16T10:29:25.929Z,21.40
2019-04-16T10:31:55.179Z,21.60
2019-04-16T10:34:23.728Z,21.70
2019-04-16T10:36:52.198Z,21.40
2019-04-16T10:39:38.802Z,20.70
2019-04-16T10:42:26.923Z,20.80
2019-04-16T10:45:03.014Z,20.90
2019-04-16T10:47:50.501Z,21.20
2019-04-16T10:50:25.363Z,21.60
2019-04-16T10:53:09.759Z,22.10
2019-04-16T10:55:56.425Z,21.60
2019-04-16T10:58:44.404Z,22.50
2019-04-16T11:01:34.693Z,22.80
2019-04-16T11:04:24.096Z,22.40
2019-04-16T11:06:53.466Z,22.50
2019-04-16T11:09:22.102Z,21.90
2019-04-16T11:11:50.644Z,21.40
2019-04-16T11:14:18.996Z,21.20
2019-04-16T11:16:50.863Z,21.50
2019-04-16T11:19:19.348Z,21.40
2019-04-16T11:21:47.889Z,21.50
2019-04-16T11:24:20.297Z,22.20
2019-04-16T11:26:47.512Z,23.20
2019-04-16T11:29:15.930Z,23.00
2019-04-16T11:31:44.554Z,22.70
2019-04-16T11:34:13.069Z,21.70
2019-04-16T11:36:41.529Z,21.50
2019-04-16T11:39:11.267Z,21.90
2019-04-16T11:41:39.797Z,22.30
2019-04-16T11:44:15.978Z,22.50
2019-04-16T11:46:39.183Z,22.70
2019-04-16T11:49:07.914Z,22.60
2019-04-16T11:51:38.406Z,22.50
2019-04-16T11:54:07.575Z,22.20
2019-04-16T11:56:37.390Z,22.50
2019-04-16T11:59:06.663Z,22.70
2019-04-16T12:01:49.177Z,23.00
2019-04-16T12:04:49.537Z,23.00
2019-04-16T12:07:56.047Z,21.70
2019-04-16T12:10:38.489Z,22.10
2019-04-16T12:13:38.716Z,22.80
2019-04-16T12:16:25.421Z,22.40
2019-04-16T12:19:12.119Z,22.40
2019-04-16T12:22:18.344Z,22.60
2019-04-16T12:24:52.689Z,23.30
2019-04-16T12:27:44.383Z,24.00
2019-04-16T12:30:23.225Z,24.80
2019-04-16T12:32:57.075Z,24.00
2019-04-16T12:35:47.839Z,24.10
2019-04-16T12:38:23.968Z,23.00
2019-04-16T12:41:14.251Z,22.60
2019-04-16T12:44:05.252Z,22.70
2019-04-16T12:47:05.034Z,22.90
2019-04-16T12:49:47.983Z,23.40
2019-04-16T12:52:41.386Z,22.90
2019-04-16T12:55:23.719Z,22.30
2019-04-16T12:58:20.006Z,22.80
2019-04-16T13:01:09.342Z,23.10
2019-04-16T13:03:52.582Z,24.10
2019-04-16T13:06:41.882Z,25.10
2019-04-16T13:09:32.291Z,25.70
2019-04-16T13:12:37.098Z,25.00
2019-04-16T13:15:14.820Z,23.70
2019-04-16T13:18:02.849Z,23.50
2019-04-16T13:20:50.462Z,22.90
2019-04-16T13:23:44.599Z,22.60
2019-04-16T13:26:32.489Z,24.30
2019-04-16T13:29:03.835Z,23.80
2019-04-16T13:31:32.169Z,22.90
2019-04-16T13:34:00.738Z,23.20
2019-04-16T13:36:29.269Z,22.70
2019-04-16T13:39:15.211Z,22.20
2019-04-16T13:41:43.782Z,21.80
2019-04-16T13:44:16.806Z,21.90
2019-04-16T13:46:43.922Z,22.50
2019-04-16T13:49:17.491Z,22.50
2019-04-16T13:51:47.813Z,22.50
2019-04-16T13:54:34.000Z,21.90
2019-04-16T13:57:03.169Z,21.20
2019-04-16T14:00:03.175Z,20.50
2019-04-16T14:02:39.737Z,20.40
2019-04-16T14:05:11.006Z,21.00
2019-04-16T14:07:38.822Z,22.00
2019-04-16T14:10:07.424Z,22.30
2019-04-16T14:12:42.233Z,22.60
2019-04-16T14:15:07.946Z,21.40
2019-04-16T14:17:51.372Z,20.20
2019-04-16T14:20:08.589Z,19.40
2019-04-16T14:22:38.193Z,19.10
2019-04-16T14:25:07.742Z,18.80
2019-04-16T14:27:37.192Z,18.40
2019-04-16T14:30:13.321Z,18.20
2019-04-16T14:32:41.822Z,18.00
2019-04-16T14:35:13.810Z,17.90
2019-04-16T14:37:44.342Z,17.80
2019-04-16T14:40:21.399Z,17.70
2019-04-16T14:42:57.505Z,17.40
2019-04-16T14:45:53.603Z,17.10
2019-04-16T14:48:09.616Z,17.00
2019-04-16T14:50:37.868Z,16.80
2019-04-16T14:53:06.349Z,16.60
2019-04-16T14:56:00.773Z,16.30
2019-04-16T14:58:44.142Z,16.10
2019-04-16T15:01:41.995Z,15.90
2019-04-16T15:04:18.298Z,15.90
2019-04-16T15:06:56.054Z,15.80
2019-04-16T15:09:32.734Z,15.30
2019-04-16T15:12:39.087Z,14.90
2019-04-16T15:15:21.282Z,14.70
2019-04-16T15:18:12.087Z,14.70
2019-04-16T15:21:10.160Z,14.70
2019-04-16T15:23:46.438Z,14.80
2019-04-16T15:26:34.765Z,15.00
2019-04-16T15:29:07.557Z,15.00
2019-04-16T15:31:54.012Z,14.90
2019-04-16T15:34:26.366Z,14.80
2019-04-16T15:37:29.417Z,14.70
2019-04-16T15:40:07.020Z,14.50
2019-04-16T15:42:51.233Z,14.40
2019-04-16T15:45:29.054Z,14.40
2019-04-16T15:48:06.577Z,14.40
2019-04-16T15:50:57.269Z,14.30
2019-04-16T15:53:52.660Z,14.40
2019-04-16T15:56:44.401Z,14.30
2019-04-16T15:59:32.752Z,14.00
2019-04-16T16:02:26.977Z,13.80
2019-04-16T16:05:02.805Z,13.50
2019-04-16T16:07:35.947Z,13.20
2019-04-16T16:10:12.539Z,13.10
2019-04-16T16:12:41.224Z,13.20
2019-04-16T16:15:11.599Z,13.20
2019-04-16T16:17:40.017Z,13.10
2019-04-16T16:20:11.267Z,13.00
2019-04-16T16:22:39.798Z,13.00
2019-04-16T16:25:09.994Z,13.10
2019-04-16T16:27:41.700Z,13.00
2019-04-16T16:30:08.926Z,13.00
2019-04-16T16:32:37.478Z,13.00
2019-04-16T16:35:06.584Z,13.10
2019-04-16T16:37:36.790Z,13.10
2019-04-16T16:40:06.489Z,13.00
2019-04-16T16:42:36.849Z,12.90
2019-04-16T16:45:06.692Z,12.90
2019-04-16T16:47:39.883Z,13.00
2019-04-16T16:50:14.607Z,12.90
2019-04-16T16:53:02.801Z,12.90
2019-04-16T16:55:45.756Z,12.90
2019-04-16T16:58:46.037Z,12.70
2019-04-16T17:01:34.668Z,12.80
2019-04-16T17:04:23.037Z,12.90
2019-04-16T17:06:51.712Z,12.80
2019-04-16T17:09:27.188Z,12.80
2019-04-16T17:11:56.864Z,12.90
2019-04-16T17:14:25.659Z,12.90
2019-04-16T17:16:54.188Z,12.80
2019-04-16T17:19:22.895Z,12.70
2019-04-16T17:21:51.526Z,12.70
2019-04-16T17:24:20.066Z,12.60
2019-04-16T17:26:50.075Z,12.50
2019-04-16T17:29:19.122Z,12.40
2019-04-16T17:31:50.815Z,12.30
2019-04-16T17:34:19.832Z,12.30
2019-04-16T17:36:48.970Z,12.30
2019-04-16T17:39:42.330Z,12.50
2019-04-16T17:42:08.966Z,12.50
2019-04-16T17:44:44.997Z,12.50
2019-04-16T17:47:35.977Z,12.60
2019-04-16T17:50:13.842Z,12.60
2019-04-16T17:53:00.417Z,12.50
2019-04-16T17:55:54.289Z,12.40
2019-04-16T17:58:36.373Z,12.50
2019-04-16T18:01:40.339Z,12.40
2019-04-16T18:04:35.032Z,12.40
2019-04-16T18:07:22.942Z,12.20
2019-04-16T18:10:15.986Z,12.20
2019-04-16T18:12:56.799Z,12.10
2019-04-16T18:15:34.953Z,12.00
2019-04-16T18:18:19.317Z,11.90
2019-04-16T18:21:06.024Z,11.80
2019-04-16T18:23:53.505Z,11.80
2019-04-16T18:26:45.922Z,11.80
2019-04-16T18:29:46.365Z,11.80
2019-04-16T18:32:23.990Z,11.80
2019-04-16T18:35:07.069Z,11.70
2019-04-16T18:37:53.162Z,11.70
2019-04-16T18:40:43.694Z,11.70
2019-04-16T18:43:50.194Z,11.70
2019-04-16T18:46:56.997Z,11.60
2019-04-16T18:49:27.087Z,11.60
2019-04-16T18:51:55.640Z,11.50
2019-04-16T18:54:26.577Z,11.50
2019-04-16T18:56:55.134Z,11.50
2019-04-16T19:02:31.229Z,11.50
2019-04-16T19:05:03.092Z,11.50
2019-04-16T19:07:34.708Z,11.50
2019-04-16T19:10:03.787Z,11.50
2019-04-16T19:12:32.495Z,11.60
2019-04-16T19:15:01.318Z,11.60
2019-04-16T19:17:48.305Z,11.60
2019-04-16T19:20:19.270Z,11.50
2019-04-16T19:22:49.805Z,11.50
2019-04-16T19:25:19.943Z,11.40
2019-04-16T19:28:06.976Z,11.40
2019-04-16T19:30:36.750Z,11.40
2019-04-16T19:33:06.537Z,11.30
2019-04-16T19:35:35.077Z,11.30
2019-04-16T19:38:06.432Z,11.20
2019-04-16T19:40:34.662Z,11.20
2019-04-16T19:43:03.657Z,11.10
2019-04-16T19:45:33.836Z,11.10
2019-04-16T19:48:06.660Z,11.00
2019-04-16T19:50:37.305Z,11.00
2019-04-16T19:53:06.308Z,10.90
2019-04-16T19:55:36.517Z,10.90
2019-04-16T19:58:09.902Z,10.80
2019-04-16T20:00:38.762Z,10.80
2019-04-16T20:03:08.051Z,10.70
2019-04-16T20:05:39.510Z,10.70
2019-04-16T20:08:08.222Z,10.60
2019-04-16T20:10:53.184Z,10.80
2019-04-16T20:13:24.726Z,10.80
2019-04-16T20:15:53.985Z,10.80
2019-04-16T20:18:30.699Z,10.70
2019-04-16T20:21:01.200Z,10.70
2019-04-16T20:23:30.569Z,10.60
2019-04-16T20:26:01.545Z,10.50
2019-04-16T20:28:31.974Z,10.50
2019-04-16T20:31:04.111Z,10.40
2019-04-16T20:33:33.180Z,10.40
2019-04-16T20:36:05.695Z,10.40
2019-04-16T20:38:34.767Z,10.30
2019-04-16T20:41:11.892Z,10.20
2019-04-16T20:43:41.906Z,10.10
2019-04-16T20:46:10.714Z,10.10
2019-04-16T20:48:44.936Z,10.00
2019-04-16T20:51:12.764Z,10.00
2019-04-16T20:53:41.654Z,10.00
2019-04-16T20:56:49.894Z,10.10
2019-04-16T20:59:17.417Z,10.10
2019-04-16T21:01:48.127Z,9.90
2019-04-16T21:04:16.642Z,9.80
2019-04-16T21:06:45.371Z,9.80
2019-04-16T21:09:13.947Z,9.70
2019-04-16T21:11:42.471Z,9.50
2019-04-16T21:14:11.157Z,9.40
2019-04-16T21:16:41.613Z,9.30
2019-04-16T21:19:22.141Z,9.20
2019-04-16T21:21:40.529Z,9.10
2019-04-16T21:24:09.272Z,9.00
2019-04-16T21:26:39.590Z,9.00
2019-04-16T21:29:21.304Z,9.00
2019-04-16T21:31:54.822Z,9.00
2019-04-16T21:34:32.807Z,9.00
2019-04-16T21:37:26.907Z,8.90
2019-04-16T21:39:58.154Z,9.00
2019-04-16T21:42:26.676Z,9.10
2019-04-16T21:44:58.629Z,9.10
2019-04-16T21:47:27.382Z,9.10
2019-04-16T21:49:56.626Z,9.00
2019-04-16T21:52:26.189Z,9.00
2019-04-16T21:54:54.732Z,8.80
2019-04-16T21:57:24.591Z,8.70
2019-04-16T21:59:56.681Z,8.70
2019-04-16T22:02:28.882Z,8.60
2019-04-16T22:04:57.462Z,8.50
2019-04-16T22:07:26.132Z,8.50
2019-04-16T22:09:54.789Z,8.40
2019-04-16T22:12:23.379Z,8.40
2019-04-16T22:14:54.394Z,8.40
2019-04-16T22:17:23.174Z,8.50
2019-04-16T22:19:54.193Z,8.50
2019-04-16T22:22:27.830Z,8.50
2019-04-16T22:24:57.275Z,8.50
2019-04-16T22:27:26.894Z,8.50
2019-04-16T22:29:58.910Z,8.50
2019-04-16T22:32:30.846Z,8.50
2019-04-16T22:34:58.169Z,8.50
2019-04-16T22:37:27.635Z,8.50
2019-04-16T22:40:30.634Z,8.60
2019-04-16T22:43:12.634Z,8.50
2019-04-16T22:46:13.869Z,8.40
2019-04-16T22:48:54.139Z,8.40
2019-04-16T22:51:25.985Z,8.30
2019-04-16T22:53:54.514Z,8.10
2019-04-16T22:56:43.277Z,8.10
2019-04-16T22:59:11.671Z,8.00
2019-04-16T23:01:44.891Z,8.00
2019-04-16T23:04:12.711Z,7.90
2019-04-16T23:06:41.148Z,7.80
2019-04-16T23:09:16.727Z,7.80
2019-04-16T23:11:40.679Z,7.70
2019-04-16T23:14:09.346Z,7.70
2019-04-16T23:16:41.927Z,7.70
2019-04-16T23:19:08.461Z,7.60
2019-04-16T23:21:42.312Z,7.50
2019-04-16T23:24:07.542Z,7.50
2019-04-16T23:26:36.105Z,7.40
2019-04-16T23:29:04.613Z,7.30
2019-04-16T23:31:33.594Z,7.30
2019-04-16T23:34:06.019Z,7.20
2019-04-16T23:36:32.348Z,7.20
2019-04-16T23:39:04.653Z,7.20
2019-04-16T23:41:32.315Z,7.20
2019-04-16T23:44:18.864Z,7.20
2019-04-16T23:47:18.774Z,7.20
2019-04-16T23:50:09.799Z,7.10
2019-04-16T23:52:43.572Z,7.10
2019-04-16T23:55:45.744Z,7.00
2019-04-16T23:58:34.919Z,6.80
